Bracken, Indiana
Current Conditions -  °F | °C
As of 1:55 AM on Tuesday 21 Oct 2014 (Local Time) from KHHG Reporting Station
Overcast Overcast  
Wind Chill: 50°   Ceiling: 6000
Heat Index: 50°   Visibility: 10mi
Dew Point: 45°   Wind: 3mph
Humidity: 83%   Direction: 310°NW
Pressure: 29.94"   Gusts: NA
Location:  40.9238°N, 85.5001°W
Report Text: KHHG 210555Z AUTO 31003KT 10SM OVC060 10/07 A2994 RMK AO2 T00980071 10136 20098
Loading
Personal Weather Stations






























Interactive Weather Map
Tropical Storm Tracking
New forecast layout! Learn more

10-Day Weather Forecast

Advertisements
Track Severe Weather on mobile